sensor_id;sensor_type;location;lat;lon;timestamp;temperature;humidity
16247;DHT22;8231;50.866;7.944;2023-05-16T00:00:22;11.70;99.90
16247;DHT22;8231;50.866;7.944;2023-05-16T00:02:52;11.70;99.90
16247;DHT22;8231;50.866;7.944;2023-05-16T00:05:22;11.60;99.90
16247;DHT22;8231;50.866;7.944;2023-05-16T00:07:57;11.80;99.90
16247;DHT22;8231;50.866;7.944;2023-05-16T00:10:30;11.80;99.90
16247;DHT22;8231;50.866;7.944;2023-05-16T00:13:00;11.70;99.90
16247;DHT22;8231;50.866;7.944;2023-05-16T00:15:35;11.60;99.90
16247;DHT22;8231;50.866;7.944;2023-05-16T00:18:09;11.70;99.90
16247;DHT22;8231;50.866;7.944;2023-05-16T00:20:41;11.90;99.90
16247;DHT22;8231;50.866;7.944;2023-05-16T00:23:35;11.70;99.90
16247;DHT22;8231;50.866;7.944;2023-05-16T00:26:18;11.70;99.90
16247;DHT22;8231;50.866;7.944;2023-05-16T00:28:53;11.60;99.90
16247;DHT22;8231;50.866;7.944;2023-05-16T00:31:31;11.60;99.90
16247;DHT22;8231;50.866;7.944;2023-05-16T00:34:04;11.70;99.90
16247;DHT22;8231;50.866;7.944;2023-05-16T00:36:38;11.70;99.90
16247;DHT22;8231;50.866;7.944;2023-05-16T00:39:09;11.80;99.90
16247;DHT22;8231;50.866;7.944;2023-05-16T00:41:38;11.70;99.90
16247;DHT22;8231;50.866;7.944;2023-05-16T00:44:09;12.00;99.90
16247;DHT22;8231;50.866;7.944;2023-05-16T00:46:42;11.90;99.90
16247;DHT22;8231;50.866;7.944;2023-05-16T00:49:11;11.60;99.90
16247;DHT22;8231;50.866;7.944;2023-05-16T00:51:40;11.50;99.90
16247;DHT22;8231;50.866;7.944;2023-05-16T00:54:11;11.90;99.90
16247;DHT22;8231;50.866;7.944;2023-05-16T00:56:40;11.70;99.90
16247;DHT22;8231;50.866;7.944;2023-05-16T00:59:09;11.70;99.90
16247;DHT22;8231;50.866;7.944;2023-05-16T01:01:38;11.50;99.90
16247;DHT22;8231;50.866;7.944;2023-05-16T01:04:08;11.50;99.90
16247;DHT22;8231;50.866;7.944;2023-05-16T01:06:37;11.70;99.90
16247;DHT22;8231;50.866;7.944;2023-05-16T01:09:06;11.80;99.90
16247;DHT22;8231;50.866;7.944;2023-05-16T01:11:42;11.70;99.90
16247;DHT22;8231;50.866;7.944;2023-05-16T01:14:18;11.80;99.90
16247;DHT22;8231;50.866;7.944;2023-05-16T01:16:53;11.40;99.90
16247;DHT22;8231;50.866;7.944;2023-05-16T01:19:39;11.20;99.90
16247;DHT22;8231;50.866;7.944;2023-05-16T01:22:23;11.50;99.90
16247;DHT22;8231;50.866;7.944;2023-05-16T01:25:26;11.50;99.90
16247;DHT22;8231;50.866;7.944;2023-05-16T01:28:01;11.50;99.90
16247;DHT22;8231;50.866;7.944;2023-05-16T01:30:33;11.50;99.90
16247;DHT22;8231;50.866;7.944;2023-05-16T01:33:06;11.50;99.90
16247;DHT22;8231;50.866;7.944;2023-05-16T01:35:41;11.50;99.90
16247;DHT22;8231;50.866;7.944;2023-05-16T01:38:15;11.60;99.90
16247;DHT22;8231;50.866;7.944;2023-05-16T01:40:50;11.60;99.90
16247;DHT22;8231;50.866;7.944;2023-05-16T01:43:32;11.50;99.90
16247;DHT22;8231;50.866;7.944;2023-05-16T01:46:11;12.00;99.90
16247;DHT22;8231;50.866;7.944;2023-05-16T01:48:52;11.40;99.90
16247;DHT22;8231;50.866;7.944;2023-05-16T01:51:27;11.30;99.90
16247;DHT22;8231;50.866;7.944;2023-05-16T01:54:11;11.40;99.90
16247;DHT22;8231;50.866;7.944;2023-05-16T01:56:50;11.70;99.90
16247;DHT22;8231;50.866;7.944;2023-05-16T01:59:27;11.50;99.90
16247;DHT22;8231;50.866;7.944;2023-05-16T02:02:04;11.10;99.90
16247;DHT22;8231;50.866;7.944;2023-05-16T02:04:33;11.40;99.90
16247;DHT22;8231;50.866;7.944;2023-05-16T02:07:07;11.80;99.90
16247;DHT22;8231;50.866;7.944;2023-05-16T02:09:36;11.10;99.90
16247;DHT22;8231;50.866;7.944;2023-05-16T02:12:06;11.60;99.90
16247;DHT22;8231;50.866;7.944;2023-05-16T02:14:37;11.20;99.90
16247;DHT22;8231;50.866;7.944;2023-05-16T02:17:13;11.30;99.90
16247;DHT22;8231;50.866;7.944;2023-05-16T02:19:44;11.30;99.90
16247;DHT22;8231;50.866;7.944;2023-05-16T02:22:12;10.90;99.90
16247;DHT22;8231;50.866;7.944;2023-05-16T02:24:45;10.90;99.90
16247;DHT22;8231;50.866;7.944;2023-05-16T02:27:14;10.90;99.90
16247;DHT22;8231;50.866;7.944;2023-05-16T02:29:44;10.80;99.90
16247;DHT22;8231;50.866;7.944;2023-05-16T02:32:14;10.80;99.90
16247;DHT22;8231;50.866;7.944;2023-05-16T02:34:45;10.60;99.90
16247;DHT22;8231;50.866;7.944;2023-05-16T02:37:14;10.80;99.90
16247;DHT22;8231;50.866;7.944;2023-05-16T02:39:45;11.40;99.90
16247;DHT22;8231;50.866;7.944;2023-05-16T02:42:24;10.80;99.90
16247;DHT22;8231;50.866;7.944;2023-05-16T02:44:54;10.80;99.90
16247;DHT22;8231;50.866;7.944;2023-05-16T02:47:23;10.70;99.90
16247;DHT22;8231;50.866;7.944;2023-05-16T02:49:52;10.60;99.90
16247;DHT22;8231;50.866;7.944;2023-05-16T02:52:21;11.20;99.90
16247;DHT22;8231;50.866;7.944;2023-05-16T02:54:49;10.90;99.90
16247;DHT22;8231;50.866;7.944;2023-05-16T02:57:23;10.90;99.90
16247;DHT22;8231;50.866;7.944;2023-05-16T02:59:55;10.50;99.90
16247;DHT22;8231;50.866;7.944;2023-05-16T03:02:26;10.80;99.90
16247;DHT22;8231;50.866;7.944;2023-05-16T03:04:55;11.10;99.90
16247;DHT22;8231;50.866;7.944;2023-05-16T03:07:23;10.50;99.90
16247;DHT22;8231;50.866;7.944;2023-05-16T03:09:52;10.80;99.90
16247;DHT22;8231;50.866;7.944;2023-05-16T03:12:21;10.50;99.90
16247;DHT22;8231;50.866;7.944;2023-05-16T03:14:52;10.50;99.90
16247;DHT22;8231;50.866;7.944;2023-05-16T03:17:22;10.40;99.90
16247;DHT22;8231;50.866;7.944;2023-05-16T03:19:50;10.40;99.90
16247;DHT22;8231;50.866;7.944;2023-05-16T03:22:19;10.80;99.90
16247;DHT22;8231;50.866;7.944;2023-05-16T03:24:47;10.40;99.90
16247;DHT22;8231;50.866;7.944;2023-05-16T03:27:16;10.50;99.90
16247;DHT22;8231;50.866;7.944;2023-05-16T03:29:45;10.50;99.90
16247;DHT22;8231;50.866;7.944;2023-05-16T03:32:14;10.50;99.90
16247;DHT22;8231;50.866;7.944;2023-05-16T03:34:44;10.40;99.90
16247;DHT22;8231;50.866;7.944;2023-05-16T03:37:13;11.00;99.90
16247;DHT22;8231;50.866;7.944;2023-05-16T03:39:42;10.40;99.90
16247;DHT22;8231;50.866;7.944;2023-05-16T03:42:10;10.30;99.90
16247;DHT22;8231;50.866;7.944;2023-05-16T03:44:39;10.40;99.90
16247;DHT22;8231;50.866;7.944;2023-05-16T03:47:08;10.10;99.90
16247;DHT22;8231;50.866;7.944;2023-05-16T03:49:36;10.30;99.90
16247;DHT22;8231;50.866;7.944;2023-05-16T03:52:06;10.40;99.90
16247;DHT22;8231;50.866;7.944;2023-05-16T03:54:35;10.20;99.90
16247;DHT22;8231;50.866;7.944;2023-05-16T03:57:04;10.30;99.90
16247;DHT22;8231;50.866;7.944;2023-05-16T03:59:33;10.10;99.90
16247;DHT22;8231;50.866;7.944;2023-05-16T04:02:02;10.10;99.90
16247;DHT22;8231;50.866;7.944;2023-05-16T04:04:31;10.20;99.90
16247;DHT22;8231;50.866;7.944;2023-05-16T04:07:00;10.30;99.90
16247;DHT22;8231;50.866;7.944;2023-05-16T04:09:31;10.30;99.90
16247;DHT22;8231;50.866;7.944;2023-05-16T04:11:59;10.10;99.90
16247;DHT22;8231;50.866;7.944;2023-05-16T04:14:29;10.10;99.90
16247;DHT22;8231;50.866;7.944;2023-05-16T04:16:58;10.10;99.90
16247;DHT22;8231;50.866;7.944;2023-05-16T04:19:26;10.10;99.90
16247;DHT22;8231;50.866;7.944;2023-05-16T04:21:54;10.20;99.90
16247;DHT22;8231;50.866;7.944;2023-05-16T04:24:23;10.00;99.90
16247;DHT22;8231;50.866;7.944;2023-05-16T04:26:56;10.10;99.90
16247;DHT22;8231;50.866;7.944;2023-05-16T04:29:24;10.60;99.90
16247;DHT22;8231;50.866;7.944;2023-05-16T04:31:52;10.10;99.90
16247;DHT22;8231;50.866;7.944;2023-05-16T04:34:22;10.00;99.90
16247;DHT22;8231;50.866;7.944;2023-05-16T04:36:54;10.10;99.90
16247;DHT22;8231;50.866;7.944;2023-05-16T04:39:22;9.80;99.90
16247;DHT22;8231;50.866;7.944;2023-05-16T04:41:50;9.80;99.90
16247;DHT22;8231;50.866;7.944;2023-05-16T04:44:21;9.80;99.90
16247;DHT22;8231;50.866;7.944;2023-05-16T04:46:50;9.70;99.90
16247;DHT22;8231;50.866;7.944;2023-05-16T04:49:19;9.70;99.90
16247;DHT22;8231;50.866;7.944;2023-05-16T04:51:48;9.50;99.90
16247;DHT22;8231;50.866;7.944;2023-05-16T04:54:16;9.90;99.90
16247;DHT22;8231;50.866;7.944;2023-05-16T04:56:45;9.70;99.90
16247;DHT22;8231;50.866;7.944;2023-05-16T04:59:14;10.00;99.90
16247;DHT22;8231;50.866;7.944;2023-05-16T05:01:44;9.70;99.90
16247;DHT22;8231;50.866;7.944;2023-05-16T05:04:12;9.60;99.90
16247;DHT22;8231;50.866;7.944;2023-05-16T05:06:40;9.50;99.90
16247;DHT22;8231;50.866;7.944;2023-05-16T05:09:09;9.60;99.90
16247;DHT22;8231;50.866;7.944;2023-05-16T05:11:37;9.60;99.90
16247;DHT22;8231;50.866;7.944;2023-05-16T05:14:06;9.60;99.90
16247;DHT22;8231;50.866;7.944;2023-05-16T05:16:34;9.70;99.90
16247;DHT22;8231;50.866;7.944;2023-05-16T05:19:06;9.50;99.90
16247;DHT22;8231;50.866;7.944;2023-05-16T05:21:35;9.50;99.90
16247;DHT22;8231;50.866;7.944;2023-05-16T05:24:04;9.70;99.90
16247;DHT22;8231;50.866;7.944;2023-05-16T05:26:33;9.60;99.90
16247;DHT22;8231;50.866;7.944;2023-05-16T05:29:02;9.60;99.90
16247;DHT22;8231;50.866;7.944;2023-05-16T05:31:32;9.90;99.90
16247;DHT22;8231;50.866;7.944;2023-05-16T05:34:02;9.70;99.90
16247;DHT22;8231;50.866;7.944;2023-05-16T05:36:32;9.70;99.90
16247;DHT22;8231;50.866;7.944;2023-05-16T05:39:00;9.60;99.90
16247;DHT22;8231;50.866;7.944;2023-05-16T05:41:28;9.50;99.90
16247;DHT22;8231;50.866;7.944;2023-05-16T05:43:57;9.50;99.90
16247;DHT22;8231;50.866;7.944;2023-05-16T05:46:25;9.50;99.90
16247;DHT22;8231;50.866;7.944;2023-05-16T05:48:54;9.40;99.90
16247;DHT22;8231;50.866;7.944;2023-05-16T05:51:23;9.40;99.90
16247;DHT22;8231;50.866;7.944;2023-05-16T05:53:53;9.60;99.90
16247;DHT22;8231;50.866;7.944;2023-05-16T05:56:21;9.70;99.90
16247;DHT22;8231;50.866;7.944;2023-05-16T05:58:50;9.50;99.90
16247;DHT22;8231;50.866;7.944;2023-05-16T06:01:19;9.50;99.90
16247;DHT22;8231;50.866;7.944;2023-05-16T06:03:48;9.60;99.90
16247;DHT22;8231;50.866;7.944;2023-05-16T06:06:17;9.60;99.90
16247;DHT22;8231;50.866;7.944;2023-05-16T06:08:46;9.70;99.90
16247;DHT22;8231;50.866;7.944;2023-05-16T06:11:16;9.70;99.90
16247;DHT22;8231;50.866;7.944;2023-05-16T06:13:44;10.20;99.90
16247;DHT22;8231;50.866;7.944;2023-05-16T06:16:13;10.10;99.90
16247;DHT22;8231;50.866;7.944;2023-05-16T06:18:41;10.00;99.90
16247;DHT22;8231;50.866;7.944;2023-05-16T06:21:10;10.20;99.90
16247;DHT22;8231;50.866;7.944;2023-05-16T06:23:38;10.20;99.90
16247;DHT22;8231;50.866;7.944;2023-05-16T06:26:06;10.40;99.90
16247;DHT22;8231;50.866;7.944;2023-05-16T06:28:36;10.30;99.90
16247;DHT22;8231;50.866;7.944;2023-05-16T06:31:05;10.30;99.90
16247;DHT22;8231;50.866;7.944;2023-05-16T06:33:33;10.50;99.90
16247;DHT22;8231;50.866;7.944;2023-05-16T06:36:02;10.50;99.90
16247;DHT22;8231;50.866;7.944;2023-05-16T06:38:30;10.30;99.90
16247;DHT22;8231;50.866;7.944;2023-05-16T06:40:59;10.10;99.90
16247;DHT22;8231;50.866;7.944;2023-05-16T06:43:27;10.10;99.90
16247;DHT22;8231;50.866;7.944;2023-05-16T06:45:57;9.70;99.90
16247;DHT22;8231;50.866;7.944;2023-05-16T06:48:26;9.20;99.90
16247;DHT22;8231;50.866;7.944;2023-05-16T06:50:54;9.30;99.90
16247;DHT22;8231;50.866;7.944;2023-05-16T06:53:23;9.50;99.90
16247;DHT22;8231;50.866;7.944;2023-05-16T06:55:52;9.40;99.90
16247;DHT22;8231;50.866;7.944;2023-05-16T06:58:20;9.10;99.90
16247;DHT22;8231;50.866;7.944;2023-05-16T07:00:49;9.40;99.90
16247;DHT22;8231;50.866;7.944;2023-05-16T07:03:19;9.80;99.90
16247;DHT22;8231;50.866;7.944;2023-05-16T07:05:47;10.70;99.90
16247;DHT22;8231;50.866;7.944;2023-05-16T07:08:18;11.40;99.90
16247;DHT22;8231;50.866;7.944;2023-05-16T07:10:47;11.30;99.90
16247;DHT22;8231;50.866;7.944;2023-05-16T07:13:15;11.30;99.90
16247;DHT22;8231;50.866;7.944;2023-05-16T07:15:44;11.70;99.90
16247;DHT22;8231;50.866;7.944;2023-05-16T07:18:12;12.00;99.90
16247;DHT22;8231;50.866;7.944;2023-05-16T07:20:42;12.00;99.90
16247;DHT22;8231;50.866;7.944;2023-05-16T07:23:11;12.40;99.90
16247;DHT22;8231;50.866;7.944;2023-05-16T07:25:40;13.00;99.90
16247;DHT22;8231;50.866;7.944;2023-05-16T07:28:09;13.20;99.90
16247;DHT22;8231;50.866;7.944;2023-05-16T07:30:37;13.10;99.90
16247;DHT22;8231;50.866;7.944;2023-05-16T07:33:06;12.60;99.90
16247;DHT22;8231;50.866;7.944;2023-05-16T07:35:35;12.50;99.90
16247;DHT22;8231;50.866;7.944;2023-05-16T07:38:05;12.30;99.90
16247;DHT22;8231;50.866;7.944;2023-05-16T07:40:34;12.20;99.90
16247;DHT22;8231;50.866;7.944;2023-05-16T07:43:02;11.90;99.90
16247;DHT22;8231;50.866;7.944;2023-05-16T07:45:30;11.90;99.90
16247;DHT22;8231;50.866;7.944;2023-05-16T07:47:59;11.70;99.90
16247;DHT22;8231;50.866;7.944;2023-05-16T07:50:28;11.40;99.90
16247;DHT22;8231;50.866;7.944;2023-05-16T07:52:56;11.40;99.90
16247;DHT22;8231;50.866;7.944;2023-05-16T07:55:28;11.70;99.90
16247;DHT22;8231;50.866;7.944;2023-05-16T07:57:57;11.70;99.90
16247;DHT22;8231;50.866;7.944;2023-05-16T08:00:26;11.50;99.90
16247;DHT22;8231;50.866;7.944;2023-05-16T08:02:56;11.60;99.90
16247;DHT22;8231;50.866;7.944;2023-05-16T08:05:25;11.90;99.90
16247;DHT22;8231;50.866;7.944;2023-05-16T08:07:54;12.40;99.90
16247;DHT22;8231;50.866;7.944;2023-05-16T08:10:22;13.40;99.90
16247;DHT22;8231;50.866;7.944;2023-05-16T08:12:52;14.10;99.90
16247;DHT22;8231;50.866;7.944;2023-05-16T08:15:21;14.10;99.90
16247;DHT22;8231;50.866;7.944;2023-05-16T08:17:49;14.40;99.90
16247;DHT22;8231;50.866;7.944;2023-05-16T08:20:18;14.50;99.90
16247;DHT22;8231;50.866;7.944;2023-05-16T08:22:47;15.00;99.90
16247;DHT22;8231;50.866;7.944;2023-05-16T08:25:16;15.20;99.90
16247;DHT22;8231;50.866;7.944;2023-05-16T08:27:48;16.10;99.90
16247;DHT22;8231;50.866;7.944;2023-05-16T08:30:22;16.10;99.90
16247;DHT22;8231;50.866;7.944;2023-05-16T08:32:51;15.70;99.90
16247;DHT22;8231;50.866;7.944;2023-05-16T08:35:19;15.30;99.90
16247;DHT22;8231;50.866;7.944;2023-05-16T08:37:48;15.50;99.90
16247;DHT22;8231;50.866;7.944;2023-05-16T08:40:17;15.20;99.90
16247;DHT22;8231;50.866;7.944;2023-05-16T08:47:39;14.30;99.90
16247;DHT22;8231;50.866;7.944;2023-05-16T08:50:09;14.10;99.90
16247;DHT22;8231;50.866;7.944;2023-05-16T08:52:38;14.20;99.90
16247;DHT22;8231;50.866;7.944;2023-05-16T08:55:09;14.60;99.90
16247;DHT22;8231;50.866;7.944;2023-05-16T08:57:38;14.70;99.90
16247;DHT22;8231;50.866;7.944;2023-05-16T09:00:09;14.80;99.90
16247;DHT22;8231;50.866;7.944;2023-05-16T09:02:41;15.40;99.90
16247;DHT22;8231;50.866;7.944;2023-05-16T09:05:12;15.70;99.90
16247;DHT22;8231;50.866;7.944;2023-05-16T09:07:44;16.30;99.90
16247;DHT22;8231;50.866;7.944;2023-05-16T09:10:12;16.70;99.90
16247;DHT22;8231;50.866;7.944;2023-05-16T09:12:41;16.70;99.50
16247;DHT22;8231;50.866;7.944;2023-05-16T09:15:10;17.00;99.90
16247;DHT22;8231;50.866;7.944;2023-05-16T09:17:42;17.20;99.90
16247;DHT22;8231;50.866;7.944;2023-05-16T09:20:13;17.00;99.10
16247;DHT22;8231;50.866;7.944;2023-05-16T09:22:50;16.90;98.20
16247;DHT22;8231;50.866;7.944;2023-05-16T09:25:20;16.80;98.40
16247;DHT22;8231;50.866;7.944;2023-05-16T09:27:58;17.10;97.20
16247;DHT22;8231;50.866;7.944;2023-05-16T09:30:30;16.80;98.90
16247;DHT22;8231;50.866;7.944;2023-05-16T09:33:01;17.10;99.70
16247;DHT22;8231;50.866;7.944;2023-05-16T09:35:30;17.10;96.60
16247;DHT22;8231;50.866;7.944;2023-05-16T09:38:01;17.20;97.90
16247;DHT22;8231;50.866;7.944;2023-05-16T09:40:29;16.90;95.70
16247;DHT22;8231;50.866;7.944;2023-05-16T09:43:02;16.60;98.10
16247;DHT22;8231;50.866;7.944;2023-05-16T09:45:32;16.70;96.70
16247;DHT22;8231;50.866;7.944;2023-05-16T09:48:03;16.60;96.00
16247;DHT22;8231;50.866;7.944;2023-05-16T09:50:33;16.90;97.50
16247;DHT22;8231;50.866;7.944;2023-05-16T09:53:02;17.40;97.10
16247;DHT22;8231;50.866;7.944;2023-05-16T09:55:31;17.10;97.20
16247;DHT22;8231;50.866;7.944;2023-05-16T09:57:59;17.10;94.40
16247;DHT22;8231;50.866;7.944;2023-05-16T10:00:29;16.50;93.90
16247;DHT22;8231;50.866;7.944;2023-05-16T10:02:59;16.20;94.40
16247;DHT22;8231;50.866;7.944;2023-05-16T10:05:32;16.30;95.70
16247;DHT22;8231;50.866;7.944;2023-05-16T10:08:02;16.70;95.90
16247;DHT22;8231;50.866;7.944;2023-05-16T10:10:35;16.90;96.90
16247;DHT22;8231;50.866;7.944;2023-05-16T10:13:06;16.90;97.40
16247;DHT22;8231;50.866;7.944;2023-05-16T10:15:36;17.00;95.90
16247;DHT22;8231;50.866;7.944;2023-05-16T10:18:06;16.60;94.90
16247;DHT22;8231;50.866;7.944;2023-05-16T10:20:40;16.60;96.70
16247;DHT22;8231;50.866;7.944;2023-05-16T10:23:15;16.90;97.30
16247;DHT22;8231;50.866;7.944;2023-05-16T10:25:45;17.20;94.90
16247;DHT22;8231;50.866;7.944;2023-05-16T10:28:14;17.40;95.40
16247;DHT22;8231;50.866;7.944;2023-05-16T10:30:44;17.70;94.40
16247;DHT22;8231;50.866;7.944;2023-05-16T10:33:14;17.70;92.70
16247;DHT22;8231;50.866;7.944;2023-05-16T10:35:48;17.50;92.20
16247;DHT22;8231;50.866;7.944;2023-05-16T10:38:17;17.50;94.50
16247;DHT22;8231;50.866;7.944;2023-05-16T10:40:46;17.80;92.10
16247;DHT22;8231;50.866;7.944;2023-05-16T10:43:23;17.60;94.00
16247;DHT22;8231;50.866;7.944;2023-05-16T10:45:56;17.50;94.40
16247;DHT22;8231;50.866;7.944;2023-05-16T10:48:28;17.50;94.90
16247;DHT22;8231;50.866;7.944;2023-05-16T10:50:58;17.10;93.80
16247;DHT22;8231;50.866;7.944;2023-05-16T10:53:30;17.10;94.30
16247;DHT22;8231;50.866;7.944;2023-05-16T10:56:06;16.90;91.40
16247;DHT22;8231;50.866;7.944;2023-05-16T10:58:43;17.00;91.50
16247;DHT22;8231;50.866;7.944;2023-05-16T11:01:21;17.20;92.30
16247;DHT22;8231;50.866;7.944;2023-05-16T11:04:01;17.30;90.80
16247;DHT22;8231;50.866;7.944;2023-05-16T11:06:32;17.30;91.60
16247;DHT22;8231;50.866;7.944;2023-05-16T11:09:05;17.40;90.70
16247;DHT22;8231;50.866;7.944;2023-05-16T11:11:40;17.40;90.40
16247;DHT22;8231;50.866;7.944;2023-05-16T11:14:19;17.10;91.10
16247;DHT22;8231;50.866;7.944;2023-05-16T11:16:49;17.00;91.40
16247;DHT22;8231;50.866;7.944;2023-05-16T11:19:29;16.60;92.00
16247;DHT22;8231;50.866;7.944;2023-05-16T11:22:20;16.70;93.00
16247;DHT22;8231;50.866;7.944;2023-05-16T11:24:54;17.30;91.50
16247;DHT22;8231;50.866;7.944;2023-05-16T11:27:25;17.70;93.30
16247;DHT22;8231;50.866;7.944;2023-05-16T11:30:11;18.10;93.00
16247;DHT22;8231;50.866;7.944;2023-05-16T11:32:43;18.00;92.00
16247;DHT22;8231;50.866;7.944;2023-05-16T11:35:16;17.60;90.20
16247;DHT22;8231;50.866;7.944;2023-05-16T11:37:46;17.30;91.80
16247;DHT22;8231;50.866;7.944;2023-05-16T11:40:15;17.60;93.40
16247;DHT22;8231;50.866;7.944;2023-05-16T11:42:45;18.00;90.40
16247;DHT22;8231;50.866;7.944;2023-05-16T11:45:15;17.80;85.30
16247;DHT22;8231;50.866;7.944;2023-05-16T11:47:45;17.60;90.60
16247;DHT22;8231;50.866;7.944;2023-05-16T11:50:15;17.90;91.60
16247;DHT22;8231;50.866;7.944;2023-05-16T11:52:47;18.20;88.90
16247;DHT22;8231;50.866;7.944;2023-05-16T11:55:16;18.50;90.30
16247;DHT22;8231;50.866;7.944;2023-05-16T11:57:59;18.20;88.30
16247;DHT22;8231;50.866;7.944;2023-05-16T12:00:28;17.60;90.10
16247;DHT22;8231;50.866;7.944;2023-05-16T12:03:00;17.50;88.00
16247;DHT22;8231;50.866;7.944;2023-05-16T12:05:29;17.70;87.00
16247;DHT22;8231;50.866;7.944;2023-05-16T12:08:01;17.60;83.20
16247;DHT22;8231;50.866;7.944;2023-05-16T12:10:31;17.90;83.40
16247;DHT22;8231;50.866;7.944;2023-05-16T12:13:01;17.50;83.00
16247;DHT22;8231;50.866;7.944;2023-05-16T12:15:30;17.80;85.50
16247;DHT22;8231;50.866;7.944;2023-05-16T12:17:59;18.60;82.70
16247;DHT22;8231;50.866;7.944;2023-05-16T12:20:28;18.90;82.50
16247;DHT22;8231;50.866;7.944;2023-05-16T12:22:57;18.70;81.40
16247;DHT22;8231;50.866;7.944;2023-05-16T12:25:28;18.80;85.30
16247;DHT22;8231;50.866;7.944;2023-05-16T12:27:59;19.70;82.40
16247;DHT22;8231;50.866;7.944;2023-05-16T12:30:30;20.70;82.20
16247;DHT22;8231;50.866;7.944;2023-05-16T12:33:00;21.10;84.30
16247;DHT22;8231;50.866;7.944;2023-05-16T12:35:34;20.90;82.00
16247;DHT22;8231;50.866;7.944;2023-05-16T12:38:04;20.00;77.00
16247;DHT22;8231;50.866;7.944;2023-05-16T12:40:35;19.00;77.80
